sensor_id;sensor_type;location;lat;lon;timestamp;pressure;altitude;pressure_sealevel;temperature;humidity
35758;BME280;21879;50.110;18.900;2023-04-28T00:01:13;99130.99;;;5.64;53.19
35758;BME280;21879;50.110;18.900;2023-04-28T00:11:39;99124.52;;;5.69;53.22
35758;BME280;21879;50.110;18.900;2023-04-28T00:22:06;99123.58;;;5.64;53.19
35758;BME280;21879;50.110;18.900;2023-04-28T00:32:32;99123.54;;;5.71;53.33
35758;BME280;21879;50.110;18.900;2023-04-28T00:42:58;99113.94;;;5.66;53.00
35758;BME280;21879;50.110;18.900;2023-04-28T00:53:24;99116.63;;;5.52;52.89
35758;BME280;21879;50.110;18.900;2023-04-28T01:03:51;99126.04;;;5.37;52.84
35758;BME280;21879;50.110;18.900;2023-04-28T01:14:17;99124.33;;;5.29;53.18
35758;BME280;21879;50.110;18.900;2023-04-28T01:24:43;99121.63;;;5.22;53.36
35758;BME280;21879;50.110;18.900;2023-04-28T01:35:10;99116.30;;;5.23;53.41
35758;BME280;21879;50.110;18.900;2023-04-28T01:45:36;99110.73;;;5.12;53.30
35758;BME280;21879;50.110;18.900;2023-04-28T01:56:02;99118.09;;;4.91;53.30
35758;BME280;21879;50.110;18.900;2023-04-28T02:06:28;99118.82;;;4.83;53.51
35758;BME280;21879;50.110;18.900;2023-04-28T02:16:53;99119.45;;;4.81;53.65
35758;BME280;21879;50.110;18.900;2023-04-28T02:27:19;99120.35;;;4.74;53.72
35758;BME280;21879;50.110;18.900;2023-04-28T02:37:45;99119.79;;;4.64;53.78
35758;BME280;21879;50.110;18.900;2023-04-28T02:48:20;99105.95;;;4.52;54.00
35758;BME280;21879;50.110;18.900;2023-04-28T02:58:45;99104.21;;;4.60;53.94
35758;BME280;21879;50.110;18.900;2023-04-28T03:09:12;99104.02;;;4.51;53.93
35758;BME280;21879;50.110;18.900;2023-04-28T03:19:38;99108.16;;;4.43;53.89
35758;BME280;21879;50.110;18.900;2023-04-28T03:30:06;99111.27;;;4.44;54.00
35758;BME280;21879;50.110;18.900;2023-04-28T03:40:32;99104.70;;;4.34;54.01
35758;BME280;21879;50.110;18.900;2023-04-28T03:50:58;99099.25;;;4.21;54.07
35758;BME280;21879;50.110;18.900;2023-04-28T04:01:23;99095.30;;;4.29;54.19
35758;BME280;21879;50.110;18.900;2023-04-28T04:11:49;99095.81;;;4.37;54.24
35758;BME280;21879;50.110;18.900;2023-04-28T04:22:15;99104.16;;;4.33;54.47
35758;BME280;21879;50.110;18.900;2023-04-28T04:32:41;99112.30;;;4.35;54.89
35758;BME280;21879;50.110;18.900;2023-04-28T04:43:07;99117.66;;;4.44;55.55
35758;BME280;21879;50.110;18.900;2023-04-28T04:53:32;99102.73;;;4.72;56.17
35758;BME280;21879;50.110;18.900;2023-04-28T05:03:58;99107.95;;;5.01;56.96
35758;BME280;21879;50.110;18.900;2023-04-28T05:14:25;99109.23;;;5.42;58.10
35758;BME280;21879;50.110;18.900;2023-04-28T05:24:51;99103.89;;;5.84;58.53
35758;BME280;21879;50.110;18.900;2023-04-28T05:35:17;99101.16;;;6.19;58.40
35758;BME280;21879;50.110;18.900;2023-04-28T05:45:43;99103.63;;;6.47;58.41
35758;BME280;21879;50.110;18.900;2023-04-28T05:56:10;99104.08;;;6.83;57.73
35758;BME280;21879;50.110;18.900;2023-04-28T06:06:36;99104.13;;;7.17;57.06
35758;BME280;21879;50.110;18.900;2023-04-28T06:17:02;99102.89;;;7.52;56.54
35758;BME280;21879;50.110;18.900;2023-04-28T06:27:28;99098.26;;;7.74;55.62
35758;BME280;21879;50.110;18.900;2023-04-28T06:37:56;99097.86;;;7.91;55.36
35758;BME280;21879;50.110;18.900;2023-04-28T06:48:22;99093.55;;;8.46;55.85
35758;BME280;21879;50.110;18.900;2023-04-28T06:58:49;99084.46;;;9.20;55.47
35758;BME280;21879;50.110;18.900;2023-04-28T07:09:15;99067.83;;;9.94;54.58
35758;BME280;21879;50.110;18.900;2023-04-28T07:19:42;99055.89;;;10.59;53.18
35758;BME280;21879;50.110;18.900;2023-04-28T07:30:10;99050.85;;;11.23;51.57
35758;BME280;21879;50.110;18.900;2023-04-28T07:40:50;99035.84;;;11.73;49.70
35758;BME280;21879;50.110;18.900;2023-04-28T07:51:17;99027.39;;;12.21;48.69
35758;BME280;21879;50.110;18.900;2023-04-28T08:01:43;99018.65;;;12.66;47.00
35758;BME280;21879;50.110;18.900;2023-04-28T08:12:09;99013.78;;;13.04;45.66
35758;BME280;21879;50.110;18.900;2023-04-28T08:22:34;99005.34;;;13.33;44.25
35758;BME280;21879;50.110;18.900;2023-04-28T08:33:01;98989.53;;;13.60;42.13
35758;BME280;21879;50.110;18.900;2023-04-28T08:43:27;98979.36;;;13.72;40.73
35758;BME280;21879;50.110;18.900;2023-04-28T08:53:55;98971.13;;;14.01;40.03
35758;BME280;21879;50.110;18.900;2023-04-28T09:04:27;98959.64;;;14.25;39.13
35758;BME280;21879;50.110;18.900;2023-04-28T09:14:58;98950.10;;;14.30;38.72
35758;BME280;21879;50.110;18.900;2023-04-28T09:25:32;98947.31;;;14.46;38.69
35758;BME280;21879;50.110;18.900;2023-04-28T09:35:59;98946.81;;;14.54;38.91
35758;BME280;21879;50.110;18.900;2023-04-28T09:46:29;98933.66;;;14.48;37.86
35758;BME280;21879;50.110;18.900;2023-04-28T09:56:56;98913.62;;;14.52;38.07
35758;BME280;21879;50.110;18.900;2023-04-28T10:07:22;98898.25;;;14.66;38.05
35758;BME280;21879;50.110;18.900;2023-04-28T10:17:50;98878.30;;;14.81;37.70
35758;BME280;21879;50.110;18.900;2023-04-28T10:28:19;98867.69;;;14.86;37.08
35758;BME280;21879;50.110;18.900;2023-04-28T10:39:08;98859.17;;;15.05;36.55
35758;BME280;21879;50.110;18.900;2023-04-28T10:50:08;98840.47;;;15.10;36.09
35758;BME280;21879;50.110;18.900;2023-04-28T11:00:35;98822.98;;;15.02;35.96
35758;BME280;21879;50.110;18.900;2023-04-28T11:11:21;98811.91;;;15.04;36.84
35758;BME280;21879;50.110;18.900;2023-04-28T11:21:49;98797.60;;;15.28;36.46
35758;BME280;21879;50.110;18.900;2023-04-28T11:32:15;98787.71;;;15.56;35.96
35758;BME280;21879;50.110;18.900;2023-04-28T11:42:48;98781.16;;;15.72;35.78
35758;BME280;21879;50.110;18.900;2023-04-28T11:53:14;98776.05;;;15.60;35.07
35758;BME280;21879;50.110;18.900;2023-04-28T12:03:47;98768.95;;;15.63;35.10
35758;BME280;21879;50.110;18.900;2023-04-28T12:14:12;98761.23;;;15.64;35.07
35758;BME280;21879;50.110;18.900;2023-04-28T12:24:39;98742.28;;;15.71;34.83
35758;BME280;21879;50.110;18.900;2023-04-28T12:35:06;98724.61;;;15.76;34.93
35758;BME280;21879;50.110;18.900;2023-04-28T12:45:31;98706.02;;;15.83;34.18
35758;BME280;21879;50.110;18.900;2023-04-28T12:55:57;98703.01;;;15.83;33.80
35758;BME280;21879;50.110;18.900;2023-04-28T13:06:23;98690.05;;;15.83;34.13
35758;BME280;21879;50.110;18.900;2023-04-28T13:16:49;98676.16;;;15.89;34.21
35758;BME280;21879;50.110;18.900;2023-04-28T13:27:15;98654.61;;;16.05;34.71
35758;BME280;21879;50.110;18.900;2023-04-28T13:37:42;98652.33;;;16.11;34.32
35758;BME280;21879;50.110;18.900;2023-04-28T13:48:09;98647.77;;;16.10;34.34
35758;BME280;21879;50.110;18.900;2023-04-28T13:58:35;98632.45;;;16.18;34.56
35758;BME280;21879;50.110;18.900;2023-04-28T14:09:01;98626.90;;;16.21;34.48
35758;BME280;21879;50.110;18.900;2023-04-28T14:19:28;98620.73;;;16.27;34.22
35758;BME280;21879;50.110;18.900;2023-04-28T14:29:54;98607.71;;;16.33;34.27
35758;BME280;21879;50.110;18.900;2023-04-28T14:40:19;98595.67;;;16.41;34.03
35758;BME280;21879;50.110;18.900;2023-04-28T14:50:45;98587.70;;;16.43;33.57
35758;BME280;21879;50.110;18.900;2023-04-28T15:01:12;98594.09;;;16.41;33.70
35758;BME280;21879;50.110;18.900;2023-04-28T15:11:37;98590.19;;;16.38;34.09
35758;BME280;21879;50.110;18.900;2023-04-28T15:22:03;98584.41;;;16.32;33.88
35758;BME280;21879;50.110;18.900;2023-04-28T15:32:29;98577.27;;;16.26;33.94
35758;BME280;21879;50.110;18.900;2023-04-28T15:42:56;98565.88;;;16.21;34.39
35758;BME280;21879;50.110;18.900;2023-04-28T15:53:21;98551.27;;;16.11;34.15
35758;BME280;21879;50.110;18.900;2023-04-28T16:03:48;98537.98;;;16.06;34.51
35758;BME280;21879;50.110;18.900;2023-04-28T16:14:16;98543.27;;;16.00;35.30
35758;BME280;21879;50.110;18.900;2023-04-28T16:24:41;98536.73;;;15.96;34.94
35758;BME280;21879;50.110;18.900;2023-04-28T16:35:09;98531.11;;;15.91;34.78
35758;BME280;21879;50.110;18.900;2023-04-28T16:45:38;98522.39;;;15.84;35.04
35758;BME280;21879;50.110;18.900;2023-04-28T16:56:05;98512.13;;;15.77;35.33
35758;BME280;21879;50.110;18.900;2023-04-28T17:06:34;98514.04;;;15.72;36.91
35758;BME280;21879;50.110;18.900;2023-04-28T17:16:59;98527.43;;;15.64;37.57
35758;BME280;21879;50.110;18.900;2023-04-28T17:27:26;98532.41;;;15.45;37.49
35758;BME280;21879;50.110;18.900;2023-04-28T17:37:52;98533.27;;;15.29;38.13
35758;BME280;21879;50.110;18.900;2023-04-28T17:48:18;98532.55;;;15.29;38.56
35758;BME280;21879;50.110;18.900;2023-04-28T17:58:44;98535.68;;;15.30;38.74
35758;BME280;21879;50.110;18.900;2023-04-28T18:09:11;98535.58;;;15.22;38.92
35758;BME280;21879;50.110;18.900;2023-04-28T18:19:37;98538.70;;;15.22;39.10
35758;BME280;21879;50.110;18.900;2023-04-28T18:30:04;98543.83;;;15.21;39.27
35758;BME280;21879;50.110;18.900;2023-04-28T18:40:34;98546.08;;;15.17;40.01
35758;BME280;21879;50.110;18.900;2023-04-28T18:51:02;98552.52;;;15.06;41.28
35758;BME280;21879;50.110;18.900;2023-04-28T19:01:29;98560.92;;;14.82;41.61
35758;BME280;21879;50.110;18.900;2023-04-28T19:11:55;98565.92;;;14.60;41.53
35758;BME280;21879;50.110;18.900;2023-04-28T19:22:31;98569.16;;;14.43;42.61
35758;BME280;21879;50.110;18.900;2023-04-28T19:32:58;98568.39;;;14.20;42.70
35758;BME280;21879;50.110;18.900;2023-04-28T19:43:23;98564.81;;;14.03;43.09
35758;BME280;21879;50.110;18.900;2023-04-28T19:53:49;98557.39;;;13.79;43.82
35758;BME280;21879;50.110;18.900;2023-04-28T20:04:16;98554.05;;;13.51;44.10
35758;BME280;21879;50.110;18.900;2023-04-28T20:14:42;98543.48;;;13.38;44.17
35758;BME280;21879;50.110;18.900;2023-04-28T20:25:10;98538.54;;;13.26;44.82
35758;BME280;21879;50.110;18.900;2023-04-28T20:35:37;98539.61;;;13.16;44.96
35758;BME280;21879;50.110;18.900;2023-04-28T20:46:03;98543.96;;;13.01;45.87
35758;BME280;21879;50.110;18.900;2023-04-28T20:56:33;98537.46;;;12.94;46.30
35758;BME280;21879;50.110;18.900;2023-04-28T21:06:59;98532.95;;;12.86;47.18
35758;BME280;21879;50.110;18.900;2023-04-28T21:17:26;98528.15;;;12.81;47.49
35758;BME280;21879;50.110;18.900;2023-04-28T21:27:51;98526.69;;;12.76;47.99
35758;BME280;21879;50.110;18.900;2023-04-28T21:38:17;98523.17;;;12.70;48.81
35758;BME280;21879;50.110;18.900;2023-04-28T21:48:44;98520.00;;;12.54;49.34
35758;BME280;21879;50.110;18.900;2023-04-28T21:59:10;98515.92;;;12.57;49.80
35758;BME280;21879;50.110;18.900;2023-04-28T22:09:36;98504.02;;;12.51;49.99
35758;BME280;21879;50.110;18.900;2023-04-28T22:20:02;98503.63;;;12.44;50.27
35758;BME280;21879;50.110;18.900;2023-04-28T22:30:30;98500.11;;;12.46;50.64
35758;BME280;21879;50.110;18.900;2023-04-28T22:40:56;98491.46;;;12.51;50.84
35758;BME280;21879;50.110;18.900;2023-04-28T22:51:22;98483.96;;;12.51;50.38
35758;BME280;21879;50.110;18.900;2023-04-28T23:01:48;98479.19;;;12.37;50.86
35758;BME280;21879;50.110;18.900;2023-04-28T23:12:14;98476.91;;;12.38;51.18
35758;BME280;21879;50.110;18.900;2023-04-28T23:22:40;98469.48;;;12.42;50.93
35758;BME280;21879;50.110;18.900;2023-04-28T23:33:06;98462.96;;;12.46;50.63
35758;BME280;21879;50.110;18.900;2023-04-28T23:43:32;98452.18;;;12.28;49.86
35758;BME280;21879;50.110;18.900;2023-04-28T23:53:58;98443.20;;;12.24;49.39
